TimeEDT,TemperatureF,Dew PointF,Humidity,Sea Level PressureIn,VisibilityMPH,Wind Direction,Wind SpeedMPH,Gust SpeedMPH,PrecipitationIn,Events,Conditions,WindDirDegrees,DateUTC
12:54 AM,66.9,66.0,97,29.73,6.0,Calm,Calm,-,0.03,Rain,Rain,0,2012-07-24 04:54:00
1:54 AM,68.0,66.9,96,29.65,6.0,Calm,Calm,-,0.09,Rain,Light Rain,0,2012-07-24 05:54:00
2:46 AM,68.0,66.2,94,29.74,1.8,NW,4.6,-,0.13,Rain,Rain,310,2012-07-24 06:46:00
2:54 AM,66.9,66.0,97,29.73,2.0,Variable,3.5,-,0.20,Rain,Heavy Rain,0,2012-07-24 06:54:00
3:17 AM,66.2,64.4,94,29.70,3.0,SSW,8.1,-,0.17,Rain-Thunderstorm,Rain,200,2012-07-24 07:17:00
3:42 AM,64.4,64.4,100,29.69,9.0,SW,6.9,-,0.20,Rain,Light Rain,220,2012-07-24 07:42:00
3:54 AM,64.9,64.0,97,29.67,10.0,SSW,4.6,-,0.20,Rain,Light Rain,200,2012-07-24 07:54:00
4:54 AM,64.0,63.0,96,29.63,10.0,NW,3.5,-,0.00,,Clear,310,2012-07-24 08:54:00
5:54 AM,64.9,64.0,97,29.60,10.0,Calm,Calm,-,0.00,,Clear,0,2012-07-24 09:54:00
6:54 AM,66.0,64.9,96,29.57,10.0,SSW,5.8,-,N/A,,Clear,210,2012-07-24 10:54:00
7:54 AM,72.0,68.0,87,29.57,10.0,Calm,Calm,-,N/A,,Clear,0,2012-07-24 11:54:00
8:54 AM,77.0,69.1,76,29.55,10.0,WSW,5.8,-,N/A,,Clear,240,2012-07-24 12:54:00
9:54 AM,80.1,69.1,69,29.55,10.0,Variable,4.6,-,N/A,,Partly Cloudy,0,2012-07-24 13:54:00
10:54 AM,82.0,68.0,62,29.54,10.0,Calm,Calm,-,0.00,,Mostly Cloudy,0,2012-07-24 14:54:00
11:54 AM,82.0,64.9,56,29.55,10.0,WNW,8.1,18.4,N/A,,Partly Cloudy,300,2012-07-24 15:54:00
12:54 PM,81.0,66.0,60,29.54,10.0,NNE,5.8,-,N/A,,Mostly Cloudy,30,2012-07-24 16:54:00
1:54 PM,86.0,61.0,43,29.53,10.0,NW,8.1,-,N/A,,Clear,310,2012-07-24 17:54:00
2:54 PM,86.0,62.1,44,29.55,10.0,Calm,Calm,-,N/A,,Mostly Cloudy,0,2012-07-24 18:54:00
3:54 PM,82.9,62.1,49,29.56,10.0,Variable,3.5,-,N/A,,Mostly Cloudy,0,2012-07-24 19:54:00
4:54 PM,80.1,60.1,50,29.57,10.0,North,8.1,-,N/A,,Overcast,350,2012-07-24 20:54:00
5:54 PM,78.1,60.1,54,29.58,10.0,NNW,4.6,-,N/A,,Scattered Clouds,340,2012-07-24 21:54:00
6:54 PM,71.1,61.0,70,29.63,10.0,NW,4.6,-,0.00,,Overcast,310,2012-07-24 22:54:00
7:54 PM,70.0,55.9,61,29.64,10.0,North,5.8,-,N/A,,Scattered Clouds,350,2012-07-24 23:54:00
8:54 PM,66.9,51.1,57,29.65,10.0,NW,6.9,-,N/A,,Clear,310,2012-07-25 00:54:00
9:54 PM,64.0,51.1,63,29.67,10.0,NW,4.6,-,N/A,,Clear,320,2012-07-25 01:54:00
10:54 PM,61.0,52.0,72,29.69,10.0,NW,4.6,-,N/A,,Clear,310,2012-07-25 02:54:00
11:54 PM,63.0,48.9,60,29.71,10.0,Calm,Calm,-,N/A,,Clear,0,2012-07-25 03:54:00